sensor_id;sensor_type;location;lat;lon;timestamp;temperature;humidity
40059;SHT31;25763;49.972;8.568;2022-07-23T00:01:57;22.76;65.93
40059;SHT31;25763;49.972;8.568;2022-07-23T00:04:23;22.65;65.40
40059;SHT31;25763;49.972;8.568;2022-07-23T00:06:48;22.60;66.52
40059;SHT31;25763;49.972;8.568;2022-07-23T00:09:13;22.53;66.51
40059;SHT31;25763;49.972;8.568;2022-07-23T00:11:39;22.49;66.42
40059;SHT31;25763;49.972;8.568;2022-07-23T00:14:04;22.51;67.10
40059;SHT31;25763;49.972;8.568;2022-07-23T00:16:29;22.54;66.88
40059;SHT31;25763;49.972;8.568;2022-07-23T00:18:55;22.53;67.03
40059;SHT31;25763;49.972;8.568;2022-07-23T00:21:20;22.49;66.34
40059;SHT31;25763;49.972;8.568;2022-07-23T00:23:45;22.56;67.19
40059;SHT31;25763;49.972;8.568;2022-07-23T00:26:11;22.57;67.49
40059;SHT31;25763;49.972;8.568;2022-07-23T00:28:36;22.47;66.52
40059;SHT31;25763;49.972;8.568;2022-07-23T00:31:02;22.50;67.26
40059;SHT31;25763;49.972;8.568;2022-07-23T00:33:27;22.54;68.12
40059;SHT31;25763;49.972;8.568;2022-07-23T00:35:52;22.57;67.85
40059;SHT31;25763;49.972;8.568;2022-07-23T00:38:18;22.63;67.88
40059;SHT31;25763;49.972;8.568;2022-07-23T00:40:43;22.65;67.69
40059;SHT31;25763;49.972;8.568;2022-07-23T00:43:08;22.64;68.18
40059;SHT31;25763;49.972;8.568;2022-07-23T00:45:34;22.64;68.32
40059;SHT31;25763;49.972;8.568;2022-07-23T00:48:00;22.58;67.48
40059;SHT31;25763;49.972;8.568;2022-07-23T00:50:26;22.40;66.14
40059;SHT31;25763;49.972;8.568;2022-07-23T00:52:52;22.33;68.10
40059;SHT31;25763;49.972;8.568;2022-07-23T00:55:17;22.34;68.02
40059;SHT31;25763;49.972;8.568;2022-07-23T00:57:43;22.37;68.19
40059;SHT31;25763;49.972;8.568;2022-07-23T01:00:12;22.32;67.78
40059;SHT31;25763;49.972;8.568;2022-07-23T01:02:38;22.30;68.19
40059;SHT31;25763;49.972;8.568;2022-07-23T01:05:04;22.33;67.47
40059;SHT31;25763;49.972;8.568;2022-07-23T01:07:30;22.29;67.47
40059;SHT31;25763;49.972;8.568;2022-07-23T01:09:55;22.30;68.18
40059;SHT31;25763;49.972;8.568;2022-07-23T01:12:21;22.33;68.12
40059;SHT31;25763;49.972;8.568;2022-07-23T01:15:00;22.37;68.16
40059;SHT31;25763;49.972;8.568;2022-07-23T01:17:25;22.39;68.02
40059;SHT31;25763;49.972;8.568;2022-07-23T01:19:51;22.39;68.02
40059;SHT31;25763;49.972;8.568;2022-07-23T01:22:18;22.36;67.95
40059;SHT31;25763;49.972;8.568;2022-07-23T01:24:43;22.27;68.50
40059;SHT31;25763;49.972;8.568;2022-07-23T01:27:09;22.27;68.76
40059;SHT31;25763;49.972;8.568;2022-07-23T01:29:34;22.15;69.51
40059;SHT31;25763;49.972;8.568;2022-07-23T01:31:59;21.84;71.37
40059;SHT31;25763;49.972;8.568;2022-07-23T01:34:25;21.45;72.70
40059;SHT31;25763;49.972;8.568;2022-07-23T01:36:50;21.42;73.49
40059;SHT31;25763;49.972;8.568;2022-07-23T01:39:15;21.50;73.32
40059;SHT31;25763;49.972;8.568;2022-07-23T01:41:41;21.54;73.56
40059;SHT31;25763;49.972;8.568;2022-07-23T01:44:06;21.65;73.75
40059;SHT31;25763;49.972;8.568;2022-07-23T01:46:32;21.70;73.69
40059;SHT31;25763;49.972;8.568;2022-07-23T01:48:57;21.64;73.11
40059;SHT31;25763;49.972;8.568;2022-07-23T01:51:22;21.28;73.82
40059;SHT31;25763;49.972;8.568;2022-07-23T01:53:48;20.92;74.51
40059;SHT31;25763;49.972;8.568;2022-07-23T01:56:13;20.92;74.96
40059;SHT31;25763;49.972;8.568;2022-07-23T01:58:40;20.97;75.10
40059;SHT31;25763;49.972;8.568;2022-07-23T02:01:05;21.05;75.19
40059;SHT31;25763;49.972;8.568;2022-07-23T02:03:31;20.83;75.94
40059;SHT31;25763;49.972;8.568;2022-07-23T02:05:56;20.66;76.89
40059;SHT31;25763;49.972;8.568;2022-07-23T02:08:21;20.61;76.66
40059;SHT31;25763;49.972;8.568;2022-07-23T02:10:47;20.49;77.32
40059;SHT31;25763;49.972;8.568;2022-07-23T02:13:13;20.43;77.62
40059;SHT31;25763;49.972;8.568;2022-07-23T02:15:39;20.42;77.73
40059;SHT31;25763;49.972;8.568;2022-07-23T02:18:04;20.40;77.83
40059;SHT31;25763;49.972;8.568;2022-07-23T02:20:29;20.36;78.42
40059;SHT31;25763;49.972;8.568;2022-07-23T02:22:55;20.46;78.03
40059;SHT31;25763;49.972;8.568;2022-07-23T02:25:20;20.33;78.07
40059;SHT31;25763;49.972;8.568;2022-07-23T02:27:45;20.24;78.51
40059;SHT31;25763;49.972;8.568;2022-07-23T02:30:11;20.22;78.76
40059;SHT31;25763;49.972;8.568;2022-07-23T02:32:36;20.26;78.37
40059;SHT31;25763;49.972;8.568;2022-07-23T02:35:03;20.40;78.19
40059;SHT31;25763;49.972;8.568;2022-07-23T02:37:28;20.53;78.09
40059;SHT31;25763;49.972;8.568;2022-07-23T02:39:53;20.67;77.58
40059;SHT31;25763;49.972;8.568;2022-07-23T02:42:19;20.74;77.35
40059;SHT31;25763;49.972;8.568;2022-07-23T02:44:45;20.79;76.97
40059;SHT31;25763;49.972;8.568;2022-07-23T02:47:10;20.83;77.05
40059;SHT31;25763;49.972;8.568;2022-07-23T02:49:35;20.90;77.15
40059;SHT31;25763;49.972;8.568;2022-07-23T02:52:01;20.90;76.93
40059;SHT31;25763;49.972;8.568;2022-07-23T02:54:27;20.92;76.92
40059;SHT31;25763;49.972;8.568;2022-07-23T02:56:52;20.98;77.32
40059;SHT31;25763;49.972;8.568;2022-07-23T02:59:18;20.87;77.27
40059;SHT31;25763;49.972;8.568;2022-07-23T03:01:44;20.80;77.32
40059;SHT31;25763;49.972;8.568;2022-07-23T03:04:10;20.83;77.81
40059;SHT31;25763;49.972;8.568;2022-07-23T03:06:35;20.76;77.82
40059;SHT31;25763;49.972;8.568;2022-07-23T03:09:01;20.63;79.19
40059;SHT31;25763;49.972;8.568;2022-07-23T03:11:27;20.47;79.02
40059;SHT31;25763;49.972;8.568;2022-07-23T03:13:52;20.35;79.42
40059;SHT31;25763;49.972;8.568;2022-07-23T03:16:17;20.07;79.66
40059;SHT31;25763;49.972;8.568;2022-07-23T03:18:43;20.17;79.46
40059;SHT31;25763;49.972;8.568;2022-07-23T03:21:08;20.29;79.13
40059;SHT31;25763;49.972;8.568;2022-07-23T03:23:33;20.42;78.75
40059;SHT31;25763;49.972;8.568;2022-07-23T03:25:59;20.40;78.72
40059;SHT31;25763;49.972;8.568;2022-07-23T03:28:24;20.35;78.85
40059;SHT31;25763;49.972;8.568;2022-07-23T03:30:50;20.32;79.50
40059;SHT31;25763;49.972;8.568;2022-07-23T03:33:16;20.38;78.93
40059;SHT31;25763;49.972;8.568;2022-07-23T03:35:43;20.43;78.65
40059;SHT31;25763;49.972;8.568;2022-07-23T03:38:08;20.33;78.81
40059;SHT31;25763;49.972;8.568;2022-07-23T03:40:34;20.32;79.20
40059;SHT31;25763;49.972;8.568;2022-07-23T03:42:59;20.38;79.03
40059;SHT31;25763;49.972;8.568;2022-07-23T03:45:25;20.43;78.89
40059;SHT31;25763;49.972;8.568;2022-07-23T03:47:50;20.50;78.62
40059;SHT31;25763;49.972;8.568;2022-07-23T03:50:15;20.56;78.46
40059;SHT31;25763;49.972;8.568;2022-07-23T03:52:41;20.60;78.25
40059;SHT31;25763;49.972;8.568;2022-07-23T03:55:06;20.66;78.14
40059;SHT31;25763;49.972;8.568;2022-07-23T03:57:32;20.66;77.86
40059;SHT31;25763;49.972;8.568;2022-07-23T03:59:57;20.67;77.90
40059;SHT31;25763;49.972;8.568;2022-07-23T04:02:23;20.64;78.08
40059;SHT31;25763;49.972;8.568;2022-07-23T04:04:48;20.60;78.14
40059;SHT31;25763;49.972;8.568;2022-07-23T04:07:14;20.47;78.08
40059;SHT31;25763;49.972;8.568;2022-07-23T04:09:39;20.33;78.49
40059;SHT31;25763;49.972;8.568;2022-07-23T04:12:06;20.11;78.82
40059;SHT31;25763;49.972;8.568;2022-07-23T04:14:31;20.05;79.33
40059;SHT31;25763;49.972;8.568;2022-07-23T04:16:57;20.07;79.61
40059;SHT31;25763;49.972;8.568;2022-07-23T04:19:22;20.01;79.41
40059;SHT31;25763;49.972;8.568;2022-07-23T04:21:48;20.04;79.51
40059;SHT31;25763;49.972;8.568;2022-07-23T04:24:13;19.97;79.47
40059;SHT31;25763;49.972;8.568;2022-07-23T04:26:38;20.07;79.49
40059;SHT31;25763;49.972;8.568;2022-07-23T04:29:04;20.15;79.44
40059;SHT31;25763;49.972;8.568;2022-07-23T04:31:29;20.28;79.35
40059;SHT31;25763;49.972;8.568;2022-07-23T04:33:54;20.29;78.79
40059;SHT31;25763;49.972;8.568;2022-07-23T04:36:20;20.31;78.77
40059;SHT31;25763;49.972;8.568;2022-07-23T04:38:45;20.38;78.80
40059;SHT31;25763;49.972;8.568;2022-07-23T04:41:10;20.49;78.73
40059;SHT31;25763;49.972;8.568;2022-07-23T04:43:36;20.57;78.53
40059;SHT31;25763;49.972;8.568;2022-07-23T04:46:01;20.64;78.26
40059;SHT31;25763;49.972;8.568;2022-07-23T04:48:26;20.71;78.25
40059;SHT31;25763;49.972;8.568;2022-07-23T04:50:52;20.67;77.21
40059;SHT31;25763;49.972;8.568;2022-07-23T04:53:17;20.59;76.77
40059;SHT31;25763;49.972;8.568;2022-07-23T04:55:43;20.39;77.10
40059;SHT31;25763;49.972;8.568;2022-07-23T04:58:09;20.43;77.89
40059;SHT31;25763;49.972;8.568;2022-07-23T05:00:34;20.50;78.07
40059;SHT31;25763;49.972;8.568;2022-07-23T05:02:59;20.56;77.70
40059;SHT31;25763;49.972;8.568;2022-07-23T05:05:25;20.59;77.64
40059;SHT31;25763;49.972;8.568;2022-07-23T05:07:50;20.59;76.97
40059;SHT31;25763;49.972;8.568;2022-07-23T05:10:16;20.60;76.00
40059;SHT31;25763;49.972;8.568;2022-07-23T05:12:41;20.50;75.69
40059;SHT31;25763;49.972;8.568;2022-07-23T05:15:06;20.45;75.99
40059;SHT31;25763;49.972;8.568;2022-07-23T05:17:32;20.42;76.30
40059;SHT31;25763;49.972;8.568;2022-07-23T05:19:57;20.26;75.25
40059;SHT31;25763;49.972;8.568;2022-07-23T05:22:23;20.20;75.48
40059;SHT31;25763;49.972;8.568;2022-07-23T05:24:48;20.24;76.91
40059;SHT31;25763;49.972;8.568;2022-07-23T05:27:13;20.17;77.07
40059;SHT31;25763;49.972;8.568;2022-07-23T05:29:39;20.17;77.18
40059;SHT31;25763;49.972;8.568;2022-07-23T05:32:04;20.26;77.48
40059;SHT31;25763;49.972;8.568;2022-07-23T05:34:30;20.25;76.76
40059;SHT31;25763;49.972;8.568;2022-07-23T05:36:55;20.29;76.44
40059;SHT31;25763;49.972;8.568;2022-07-23T05:39:21;20.32;76.49
40059;SHT31;25763;49.972;8.568;2022-07-23T05:41:46;20.32;75.74
40059;SHT31;25763;49.972;8.568;2022-07-23T05:44:11;20.38;75.53
40059;SHT31;25763;49.972;8.568;2022-07-23T05:46:37;20.43;74.31
40059;SHT31;25763;49.972;8.568;2022-07-23T05:49:02;20.55;76.00
40059;SHT31;25763;49.972;8.568;2022-07-23T05:51:27;20.70;75.73
40059;SHT31;25763;49.972;8.568;2022-07-23T05:53:53;20.74;74.71
40059;SHT31;25763;49.972;8.568;2022-07-23T05:56:18;20.80;74.34
40059;SHT31;25763;49.972;8.568;2022-07-23T05:58:44;20.85;74.71
40059;SHT31;25763;49.972;8.568;2022-07-23T06:01:10;20.88;74.06
40059;SHT31;25763;49.972;8.568;2022-07-23T06:03:37;21.02;74.65
40059;SHT31;25763;49.972;8.568;2022-07-23T06:06:03;21.19;73.87
40059;SHT31;25763;49.972;8.568;2022-07-23T06:08:28;21.33;73.45
40059;SHT31;25763;49.972;8.568;2022-07-23T06:10:53;21.47;73.22
40059;SHT31;25763;49.972;8.568;2022-07-23T06:13:19;21.40;72.07
40059;SHT31;25763;49.972;8.568;2022-07-23T06:15:44;21.23;70.94
40059;SHT31;25763;49.972;8.568;2022-07-23T06:18:09;21.05;70.98
40059;SHT31;25763;49.972;8.568;2022-07-23T06:20:35;21.16;72.73
40059;SHT31;25763;49.972;8.568;2022-07-23T06:23:00;21.18;71.12
40059;SHT31;25763;49.972;8.568;2022-07-23T06:25:26;21.08;70.95
40059;SHT31;25763;49.972;8.568;2022-07-23T06:27:51;20.88;71.38
40059;SHT31;25763;49.972;8.568;2022-07-23T06:30:16;20.95;72.77
40059;SHT31;25763;49.972;8.568;2022-07-23T06:32:44;21.04;72.26
40059;SHT31;25763;49.972;8.568;2022-07-23T06:35:09;21.22;72.73
40059;SHT31;25763;49.972;8.568;2022-07-23T06:37:35;21.22;69.57
40059;SHT31;25763;49.972;8.568;2022-07-23T06:40:00;21.32;69.96
40059;SHT31;25763;49.972;8.568;2022-07-23T06:42:26;21.24;69.83
40059;SHT31;25763;49.972;8.568;2022-07-23T06:44:51;21.24;70.04
40059;SHT31;25763;49.972;8.568;2022-07-23T06:47:16;21.32;69.43
40059;SHT31;25763;49.972;8.568;2022-07-23T06:49:41;21.50;69.42
40059;SHT31;25763;49.972;8.568;2022-07-23T06:52:07;21.74;71.38
40059;SHT31;25763;49.972;8.568;2022-07-23T06:54:33;21.87;69.26
40059;SHT31;25763;49.972;8.568;2022-07-23T06:56:59;21.88;67.50
40059;SHT31;25763;49.972;8.568;2022-07-23T06:59:24;21.88;67.12
40059;SHT31;25763;49.972;8.568;2022-07-23T07:01:49;21.88;67.72
40059;SHT31;25763;49.972;8.568;2022-07-23T07:04:15;22.15;69.72
40059;SHT31;25763;49.972;8.568;2022-07-23T07:06:40;22.32;69.65
40059;SHT31;25763;49.972;8.568;2022-07-23T07:09:06;22.20;66.72
40059;SHT31;25763;49.972;8.568;2022-07-23T07:11:31;22.01;66.54
40059;SHT31;25763;49.972;8.568;2022-07-23T07:13:56;22.16;66.91
40059;SHT31;25763;49.972;8.568;2022-07-23T07:16:22;22.19;67.76
40059;SHT31;25763;49.972;8.568;2022-07-23T07:18:47;22.40;69.04
40059;SHT31;25763;49.972;8.568;2022-07-23T07:21:12;22.45;66.37
40059;SHT31;25763;49.972;8.568;2022-07-23T07:23:38;22.50;64.80
40059;SHT31;25763;49.972;8.568;2022-07-23T07:26:03;22.60;67.32
40059;SHT31;25763;49.972;8.568;2022-07-23T07:28:28;22.43;65.48
40059;SHT31;25763;49.972;8.568;2022-07-23T07:30:54;22.36;64.54
40059;SHT31;25763;49.972;8.568;2022-07-23T07:33:19;22.32;66.39
40059;SHT31;25763;49.972;8.568;2022-07-23T07:35:46;22.50;68.15
40059;SHT31;25763;49.972;8.568;2022-07-23T07:38:11;22.78;66.68
40059;SHT31;25763;49.972;8.568;2022-07-23T07:40:36;22.99;66.91
40059;SHT31;25763;49.972;8.568;2022-07-23T07:43:02;23.17;65.62
40059;SHT31;25763;49.972;8.568;2022-07-23T07:45:29;23.30;65.10
40059;SHT31;25763;49.972;8.568;2022-07-23T07:47:54;23.44;65.30
40059;SHT31;25763;49.972;8.568;2022-07-23T07:50:20;23.48;63.03
40059;SHT31;25763;49.972;8.568;2022-07-23T07:52:46;23.38;61.31
40059;SHT31;25763;49.972;8.568;2022-07-23T07:55:12;23.28;61.32
40059;SHT31;25763;49.972;8.568;2022-07-23T07:57:37;23.28;62.03
40059;SHT31;25763;49.972;8.568;2022-07-23T08:00:05;23.47;62.53
40059;SHT31;25763;49.972;8.568;2022-07-23T08:02:49;23.62;63.69
40059;SHT31;25763;49.972;8.568;2022-07-23T08:05:25;23.59;60.84
40059;SHT31;25763;49.972;8.568;2022-07-23T08:07:50;23.50;61.68
40059;SHT31;25763;49.972;8.568;2022-07-23T08:10:17;23.20;60.56
40059;SHT31;25763;49.972;8.568;2022-07-23T08:12:46;23.28;61.99
40059;SHT31;25763;49.972;8.568;2022-07-23T08:15:16;23.45;64.13
40059;SHT31;25763;49.972;8.568;2022-07-23T08:17:43;23.34;62.48
40059;SHT31;25763;49.972;8.568;2022-07-23T08:20:11;23.34;61.79
40059;SHT31;25763;49.972;8.568;2022-07-23T08:22:56;23.50;64.50
40059;SHT31;25763;49.972;8.568;2022-07-23T08:25:24;23.38;60.84
40059;SHT31;25763;49.972;8.568;2022-07-23T08:27:50;23.47;61.19
40059;SHT31;25763;49.972;8.568;2022-07-23T08:30:16;23.62;61.10
40059;SHT31;25763;49.972;8.568;2022-07-23T08:32:56;23.69;60.39
40059;SHT31;25763;49.972;8.568;2022-07-23T08:35:23;23.97;63.97
40059;SHT31;25763;49.972;8.568;2022-07-23T08:37:49;24.00;61.16
40059;SHT31;25763;49.972;8.568;2022-07-23T08:40:14;24.16;61.16
40059;SHT31;25763;49.972;8.568;2022-07-23T08:42:40;24.25;59.29
40059;SHT31;25763;49.972;8.568;2022-07-23T08:45:07;24.25;59.13
40059;SHT31;25763;49.972;8.568;2022-07-23T08:47:33;24.33;58.75
40059;SHT31;25763;49.972;8.568;2022-07-23T08:49:58;24.66;59.77
40059;SHT31;25763;49.972;8.568;2022-07-23T08:52:25;24.84;61.21
40059;SHT31;25763;49.972;8.568;2022-07-23T08:54:51;25.12;56.87
40059;SHT31;25763;49.972;8.568;2022-07-23T08:57:18;25.38;56.40
40059;SHT31;25763;49.972;8.568;2022-07-23T08:59:43;25.41;56.06
40059;SHT31;25763;49.972;8.568;2022-07-23T09:02:08;25.34;59.05
40059;SHT31;25763;49.972;8.568;2022-07-23T09:04:34;25.47;57.20
40059;SHT31;25763;49.972;8.568;2022-07-23T09:07:01;25.43;56.55
40059;SHT31;25763;49.972;8.568;2022-07-23T09:09:26;25.36;58.26
40059;SHT31;25763;49.972;8.568;2022-07-23T09:12:09;25.25;58.38
40059;SHT31;25763;49.972;8.568;2022-07-23T09:14:42;25.43;60.12
40059;SHT31;25763;49.972;8.568;2022-07-23T09:17:12;25.56;58.82
40059;SHT31;25763;49.972;8.568;2022-07-23T09:19:38;25.73;58.28
40059;SHT31;25763;49.972;8.568;2022-07-23T09:22:23;25.95;59.13
40059;SHT31;25763;49.972;8.568;2022-07-23T09:30:11;26.11;57.30
40059;SHT31;25763;49.972;8.568;2022-07-23T09:32:38;26.15;56.27
40059;SHT31;25763;49.972;8.568;2022-07-23T09:35:03;26.22;59.09
40059;SHT31;25763;49.972;8.568;2022-07-23T09:37:29;26.28;58.07
40059;SHT31;25763;49.972;8.568;2022-07-23T09:40:07;26.39;57.76
40059;SHT31;25763;49.972;8.568;2022-07-23T09:42:33;26.33;56.32
40059;SHT31;25763;49.972;8.568;2022-07-23T09:44:59;26.42;56.53
40059;SHT31;25763;49.972;8.568;2022-07-23T09:47:27;26.32;58.31
40059;SHT31;25763;49.972;8.568;2022-07-23T09:50:11;26.20;56.96
40059;SHT31;25763;49.972;8.568;2022-07-23T09:52:45;26.08;56.76
40059;SHT31;25763;49.972;8.568;2022-07-23T09:55:15;26.02;56.86
40059;SHT31;25763;49.972;8.568;2022-07-23T09:57:41;25.83;54.93
40059;SHT31;25763;49.972;8.568;2022-07-23T10:00:09;25.70;58.18
40059;SHT31;25763;49.972;8.568;2022-07-23T10:02:36;25.61;56.18
40059;SHT31;25763;49.972;8.568;2022-07-23T10:05:03;25.76;57.12
40059;SHT31;25763;49.972;8.568;2022-07-23T10:07:32;25.90;57.12
40059;SHT31;25763;49.972;8.568;2022-07-23T10:09:59;26.24;54.95
40059;SHT31;25763;49.972;8.568;2022-07-23T10:12:25;26.42;56.81
40059;SHT31;25763;49.972;8.568;2022-07-23T10:14:57;26.47;56.13
40059;SHT31;25763;49.972;8.568;2022-07-23T10:17:23;26.86;57.39
40059;SHT31;25763;49.972;8.568;2022-07-23T10:19:48;26.94;56.48
40059;SHT31;25763;49.972;8.568;2022-07-23T10:22:19;27.11;56.52
40059;SHT31;25763;49.972;8.568;2022-07-23T10:30:31;27.65;56.38
40059;SHT31;25763;49.972;8.568;2022-07-23T10:39:13;27.73;53.40
40059;SHT31;25763;49.972;8.568;2022-07-23T10:41:41;27.45;52.13
40059;SHT31;25763;49.972;8.568;2022-07-23T10:44:12;27.24;53.66
40059;SHT31;25763;49.972;8.568;2022-07-23T10:47:04;27.32;53.54
40059;SHT31;25763;49.972;8.568;2022-07-23T10:49:48;27.42;51.88
40059;SHT31;25763;49.972;8.568;2022-07-23T10:54:45;27.50;52.28
40059;SHT31;25763;49.972;8.568;2022-07-23T10:57:11;27.53;49.91
40059;SHT31;25763;49.972;8.568;2022-07-23T11:02:32;28.10;53.17
40059;SHT31;25763;49.972;8.568;2022-07-23T11:05:04;28.10;53.14
40059;SHT31;25763;49.972;8.568;2022-07-23T11:07:29;28.17;51.51
40059;SHT31;25763;49.972;8.568;2022-07-23T11:09:55;28.01;51.50
40059;SHT31;25763;49.972;8.568;2022-07-23T11:15:11;27.64;50.00
40059;SHT31;25763;49.972;8.568;2022-07-23T11:25:07;28.06;49.54
40059;SHT31;25763;49.972;8.568;2022-07-23T11:27:49;27.80;50.41
40059;SHT31;25763;49.972;8.568;2022-07-23T11:30:45;27.47;50.51
40059;SHT31;25763;49.972;8.568;2022-07-23T11:35:38;27.47;50.88
40059;SHT31;25763;49.972;8.568;2022-07-23T11:38:06;27.63;51.20
40059;SHT31;25763;49.972;8.568;2022-07-23T11:40:32;27.85;51.61
40059;SHT31;25763;49.972;8.568;2022-07-23T11:43:00;27.92;49.09
40059;SHT31;25763;49.972;8.568;2022-07-23T11:45:38;28.30;50.69
40059;SHT31;25763;49.972;8.568;2022-07-23T11:48:06;28.74;50.79
40059;SHT31;25763;49.972;8.568;2022-07-23T11:50:31;29.09;50.24
40059;SHT31;25763;49.972;8.568;2022-07-23T11:52:57;29.37;47.90
40059;SHT31;25763;49.972;8.568;2022-07-23T11:55:23;29.68;48.04
40059;SHT31;25763;49.972;8.568;2022-07-23T11:57:50;29.59;50.15
40059;SHT31;25763;49.972;8.568;2022-07-23T12:00:21;29.31;46.02
40059;SHT31;25763;49.972;8.568;2022-07-23T12:02:56;29.54;50.48
40059;SHT31;25763;49.972;8.568;2022-07-23T12:05:34;29.44;47.36
40059;SHT31;25763;49.972;8.568;2022-07-23T12:08:01;29.48;48.75
40059;SHT31;25763;49.972;8.568;2022-07-23T12:10:38;29.62;48.28
40059;SHT31;25763;49.972;8.568;2022-07-23T12:13:11;29.85;46.62
40059;SHT31;25763;49.972;8.568;2022-07-23T12:15:46;30.16;44.66
40059;SHT31;25763;49.972;8.568;2022-07-23T12:18:14;30.38;45.01
40059;SHT31;25763;49.972;8.568;2022-07-23T12:20:44;30.55;43.06
40059;SHT31;25763;49.972;8.568;2022-07-23T12:23:12;30.69;43.94
40059;SHT31;25763;49.972;8.568;2022-07-23T12:25:41;30.84;43.03
40059;SHT31;25763;49.972;8.568;2022-07-23T12:28:17;30.98;42.79
40059;SHT31;25763;49.972;8.568;2022-07-23T12:30:51;31.10;44.12
40059;SHT31;25763;49.972;8.568;2022-07-23T12:36:04;31.04;43.51
40059;SHT31;25763;49.972;8.568;2022-07-23T12:38:38;30.79;43.26
40059;SHT31;25763;49.972;8.568;2022-07-23T12:41:04;30.90;42.54
40059;SHT31;25763;49.972;8.568;2022-07-23T12:43:36;30.90;42.12
40059;SHT31;25763;49.972;8.568;2022-07-23T12:46:07;30.61;40.40
40059;SHT31;25763;49.972;8.568;2022-07-23T12:51:32;30.17;42.75
40059;SHT31;25763;49.972;8.568;2022-07-23T12:54:04;30.36;42.89
40059;SHT31;25763;49.972;8.568;2022-07-23T12:56:31;30.42;40.92
40059;SHT31;25763;49.972;8.568;2022-07-23T12:59:04;30.56;41.20
40059;SHT31;25763;49.972;8.568;2022-07-23T13:01:37;30.75;40.08
40059;SHT31;25763;49.972;8.568;2022-07-23T13:04:09;30.90;42.74
40059;SHT31;25763;49.972;8.568;2022-07-23T13:06:43;30.95;41.90
40059;SHT31;25763;49.972;8.568;2022-07-23T13:09:18;31.04;42.55
40059;SHT31;25763;49.972;8.568;2022-07-23T13:11:45;31.04;42.46
40059;SHT31;25763;49.972;8.568;2022-07-23T13:14:12;30.93;41.82
40059;SHT31;25763;49.972;8.568;2022-07-23T13:16:38;30.76;42.23
40059;SHT31;25763;49.972;8.568;2022-07-23T13:19:03;30.62;43.44
40059;SHT31;25763;49.972;8.568;2022-07-23T13:21:29;30.48;43.94
40059;SHT31;25763;49.972;8.568;2022-07-23T13:23:56;30.24;41.22
40059;SHT31;25763;49.972;8.568;2022-07-23T13:26:21;30.10;42.16
40059;SHT31;25763;49.972;8.568;2022-07-23T13:28:47;30.17;43.26
40059;SHT31;25763;49.972;8.568;2022-07-23T13:31:13;30.32;42.72
40059;SHT31;25763;49.972;8.568;2022-07-23T13:33:39;30.42;43.53
40059;SHT31;25763;49.972;8.568;2022-07-23T13:36:04;30.51;40.99
40059;SHT31;25763;49.972;8.568;2022-07-23T13:38:30;30.51;41.56
40059;SHT31;25763;49.972;8.568;2022-07-23T13:40:55;30.56;42.37
40059;SHT31;25763;49.972;8.568;2022-07-23T13:43:22;30.47;42.12
40059;SHT31;25763;49.972;8.568;2022-07-23T13:45:49;30.20;41.93
40059;SHT31;25763;49.972;8.568;2022-07-23T13:48:15;30.03;42.23
40059;SHT31;25763;49.972;8.568;2022-07-23T13:50:41;30.04;41.88
40059;SHT31;25763;49.972;8.568;2022-07-23T13:53:10;30.35;42.60
40059;SHT31;25763;49.972;8.568;2022-07-23T13:55:37;30.56;40.02
40059;SHT31;25763;49.972;8.568;2022-07-23T13:58:03;30.82;42.53
40059;SHT31;25763;49.972;8.568;2022-07-23T14:00:29;30.97;43.39
40059;SHT31;25763;49.972;8.568;2022-07-23T14:02:56;31.11;41.94
40059;SHT31;25763;49.972;8.568;2022-07-23T14:05:22;31.15;42.79
40059;SHT31;25763;49.972;8.568;2022-07-23T14:07:47;31.31;42.55
40059;SHT31;25763;49.972;8.568;2022-07-23T14:10:16;31.24;41.15
40059;SHT31;25763;49.972;8.568;2022-07-23T14:12:42;31.01;40.82
40059;SHT31;25763;49.972;8.568;2022-07-23T14:15:07;30.94;41.80
40059;SHT31;25763;49.972;8.568;2022-07-23T14:17:37;30.49;40.73
40059;SHT31;25763;49.972;8.568;2022-07-23T14:20:03;30.14;44.06
40059;SHT31;25763;49.972;8.568;2022-07-23T14:22:29;30.21;43.42
40059;SHT31;25763;49.972;8.568;2022-07-23T14:24:54;30.25;43.80
40059;SHT31;25763;49.972;8.568;2022-07-23T14:27:22;30.32;44.68
40059;SHT31;25763;49.972;8.568;2022-07-23T14:29:48;30.28;43.23
40059;SHT31;25763;49.972;8.568;2022-07-23T14:32:13;30.16;44.02
40059;SHT31;25763;49.972;8.568;2022-07-23T14:34:38;29.99;43.95
40059;SHT31;25763;49.972;8.568;2022-07-23T14:37:04;29.83;44.18
40059;SHT31;25763;49.972;8.568;2022-07-23T14:39:29;29.79;43.58
40059;SHT31;25763;49.972;8.568;2022-07-23T14:41:54;29.93;45.03
40059;SHT31;25763;49.972;8.568;2022-07-23T14:44:20;29.99;44.71
40059;SHT31;25763;49.972;8.568;2022-07-23T14:46:45;30.07;44.15
40059;SHT31;25763;49.972;8.568;2022-07-23T14:49:11;30.20;43.99
40059;SHT31;25763;49.972;8.568;2022-07-23T14:51:36;30.45;42.86
40059;SHT31;25763;49.972;8.568;2022-07-23T14:54:03;30.63;42.00
40059;SHT31;25763;49.972;8.568;2022-07-23T14:56:28;30.69;41.52
40059;SHT31;25763;49.972;8.568;2022-07-23T14:58:54;30.84;41.89
40059;SHT31;25763;49.972;8.568;2022-07-23T15:01:22;30.38;40.63
40059;SHT31;25763;49.972;8.568;2022-07-23T15:03:48;30.04;42.26
40059;SHT31;25763;49.972;8.568;2022-07-23T15:06:13;30.17;42.20
40059;SHT31;25763;49.972;8.568;2022-07-23T15:08:39;30.11;41.92
40059;SHT31;25763;49.972;8.568;2022-07-23T15:11:04;29.88;42.56
40059;SHT31;25763;49.972;8.568;2022-07-23T15:13:30;29.63;43.07
40059;SHT31;25763;49.972;8.568;2022-07-23T15:15:55;29.57;43.30
40059;SHT31;25763;49.972;8.568;2022-07-23T15:18:20;29.57;44.16
40059;SHT31;25763;49.972;8.568;2022-07-23T15:20:46;29.45;42.49
40059;SHT31;25763;49.972;8.568;2022-07-23T15:23:11;29.63;43.64
40059;SHT31;25763;49.972;8.568;2022-07-23T15:25:37;29.76;41.97
40059;SHT31;25763;49.972;8.568;2022-07-23T15:28:02;29.88;42.73
40059;SHT31;25763;49.972;8.568;2022-07-23T15:30:28;29.93;42.00
40059;SHT31;25763;49.972;8.568;2022-07-23T15:32:53;29.54;41.68
40059;SHT31;25763;49.972;8.568;2022-07-23T15:35:19;29.47;42.66
40059;SHT31;25763;49.972;8.568;2022-07-23T15:37:44;29.24;42.72
40059;SHT31;25763;49.972;8.568;2022-07-23T15:40:10;28.89;43.32
40059;SHT31;25763;49.972;8.568;2022-07-23T15:42:36;28.81;43.77
40059;SHT31;25763;49.972;8.568;2022-07-23T15:45:02;28.88;43.57
40059;SHT31;25763;49.972;8.568;2022-07-23T15:47:27;29.04;43.22
40059;SHT31;25763;49.972;8.568;2022-07-23T15:49:53;29.14;43.70
40059;SHT31;25763;49.972;8.568;2022-07-23T15:52:18;29.45;43.68
40059;SHT31;25763;49.972;8.568;2022-07-23T15:54:44;29.62;40.39
40059;SHT31;25763;49.972;8.568;2022-07-23T15:57:09;29.89;42.86
40059;SHT31;25763;49.972;8.568;2022-07-23T15:59:35;30.01;42.23
40059;SHT31;25763;49.972;8.568;2022-07-23T16:02:01;29.79;39.63
40059;SHT31;25763;49.972;8.568;2022-07-23T16:04:26;29.58;39.13
40059;SHT31;25763;49.972;8.568;2022-07-23T16:06:52;29.73;38.98
40059;SHT31;25763;49.972;8.568;2022-07-23T16:09:17;30.04;41.16